sensor_id;sensor_type;location;lat;lon;timestamp;temperature;humidity
18321;DHT22;54904;54.350;18.664;2023-06-04T00:00:53;15.30;64.00
18321;DHT22;54904;54.350;18.664;2023-06-04T00:03:20;15.30;64.20
18321;DHT22;54904;54.350;18.664;2023-06-04T00:05:47;15.20;64.40
18321;DHT22;54904;54.350;18.664;2023-06-04T00:08:15;15.20;64.60
18321;DHT22;54904;54.350;18.664;2023-06-04T00:10:42;15.10;64.60
18321;DHT22;54904;54.350;18.664;2023-06-04T00:13:09;15.10;64.90
18321;DHT22;54904;54.350;18.664;2023-06-04T00:15:36;15.10;65.00
18321;DHT22;54904;54.350;18.664;2023-06-04T00:18:04;15.10;65.10
18321;DHT22;54904;54.350;18.664;2023-06-04T00:20:31;15.00;65.00
18321;DHT22;54904;54.350;18.664;2023-06-04T00:22:58;15.00;65.30
18321;DHT22;54904;54.350;18.664;2023-06-04T00:25:26;15.00;65.30
18321;DHT22;54904;54.350;18.664;2023-06-04T00:27:53;15.00;65.30
18321;DHT22;54904;54.350;18.664;2023-06-04T00:30:20;15.00;65.30
18321;DHT22;54904;54.350;18.664;2023-06-04T00:32:47;15.00;65.20
18321;DHT22;54904;54.350;18.664;2023-06-04T00:35:14;15.00;65.10
18321;DHT22;54904;54.350;18.664;2023-06-04T00:37:41;14.90;65.10
18321;DHT22;54904;54.350;18.664;2023-06-04T00:40:09;14.90;65.20
18321;DHT22;54904;54.350;18.664;2023-06-04T00:42:38;14.80;65.10
18321;DHT22;54904;54.350;18.664;2023-06-04T00:45:06;14.90;65.00
18321;DHT22;54904;54.350;18.664;2023-06-04T00:47:36;14.90;65.00
18321;DHT22;54904;54.350;18.664;2023-06-04T00:50:04;14.90;64.90
18321;DHT22;54904;54.350;18.664;2023-06-04T00:52:33;14.80;64.70
18321;DHT22;54904;54.350;18.664;2023-06-04T00:55:00;14.80;64.80
18321;DHT22;54904;54.350;18.664;2023-06-04T00:57:28;14.80;64.70
18321;DHT22;54904;54.350;18.664;2023-06-04T00:59:56;14.80;64.60
18321;DHT22;54904;54.350;18.664;2023-06-04T01:02:24;14.80;64.60
18321;DHT22;54904;54.350;18.664;2023-06-04T01:04:56;14.80;64.50
18321;DHT22;54904;54.350;18.664;2023-06-04T01:07:27;14.80;64.50
18321;DHT22;54904;54.350;18.664;2023-06-04T01:09:54;14.70;64.40
18321;DHT22;54904;54.350;18.664;2023-06-04T01:12:22;14.70;64.40
18321;DHT22;54904;54.350;18.664;2023-06-04T01:14:49;14.70;64.40
18321;DHT22;54904;54.350;18.664;2023-06-04T01:17:21;14.70;64.30
18321;DHT22;54904;54.350;18.664;2023-06-04T01:20:07;14.70;64.30
18321;DHT22;54904;54.350;18.664;2023-06-04T01:22:42;14.60;64.30
18321;DHT22;54904;54.350;18.664;2023-06-04T01:25:14;14.60;64.40
18321;DHT22;54904;54.350;18.664;2023-06-04T01:27:49;14.50;64.40
18321;DHT22;54904;54.350;18.664;2023-06-04T01:30:22;14.50;64.40
18321;DHT22;54904;54.350;18.664;2023-06-04T01:32:52;14.40;64.40
18321;DHT22;54904;54.350;18.664;2023-06-04T01:35:20;14.40;64.30
18321;DHT22;54904;54.350;18.664;2023-06-04T01:37:47;14.40;64.40
18321;DHT22;54904;54.350;18.664;2023-06-04T01:40:14;14.30;65.30
18321;DHT22;54904;54.350;18.664;2023-06-04T01:42:41;14.30;64.20
18321;DHT22;54904;54.350;18.664;2023-06-04T01:45:10;14.30;64.20
18321;DHT22;54904;54.350;18.664;2023-06-04T01:47:37;14.20;64.10
18321;DHT22;54904;54.350;18.664;2023-06-04T01:50:06;14.20;64.10
18321;DHT22;54904;54.350;18.664;2023-06-04T01:52:35;14.20;64.00
18321;DHT22;54904;54.350;18.664;2023-06-04T01:55:02;14.20;63.90
18321;DHT22;54904;54.350;18.664;2023-06-04T01:57:30;14.10;63.80
18321;DHT22;54904;54.350;18.664;2023-06-04T01:59:57;14.10;63.70
18321;DHT22;54904;54.350;18.664;2023-06-04T02:02:25;14.20;63.60
18321;DHT22;54904;54.350;18.664;2023-06-04T02:04:52;14.10;63.40
18321;DHT22;54904;54.350;18.664;2023-06-04T02:07:20;14.10;63.30
18321;DHT22;54904;54.350;18.664;2023-06-04T02:09:47;14.00;63.20
18321;DHT22;54904;54.350;18.664;2023-06-04T02:12:14;14.00;63.20
18321;DHT22;54904;54.350;18.664;2023-06-04T02:14:42;14.00;63.20
18321;DHT22;54904;54.350;18.664;2023-06-04T02:17:11;14.00;63.20
18321;DHT22;54904;54.350;18.664;2023-06-04T02:19:39;14.00;63.10
18321;DHT22;54904;54.350;18.664;2023-06-04T02:22:10;14.00;63.00
18321;DHT22;54904;54.350;18.664;2023-06-04T02:24:39;14.00;62.90
18321;DHT22;54904;54.350;18.664;2023-06-04T02:27:08;14.00;62.80
18321;DHT22;54904;54.350;18.664;2023-06-04T02:29:36;14.00;62.70
18321;DHT22;54904;54.350;18.664;2023-06-04T02:32:04;14.00;62.60
18321;DHT22;54904;54.350;18.664;2023-06-04T02:34:32;14.00;62.50
18321;DHT22;54904;54.350;18.664;2023-06-04T02:36:59;14.00;62.40
18321;DHT22;54904;54.350;18.664;2023-06-04T02:39:27;14.00;62.20
18321;DHT22;54904;54.350;18.664;2023-06-04T02:41:55;14.00;62.10
18321;DHT22;54904;54.350;18.664;2023-06-04T02:44:22;14.00;62.10
18321;DHT22;54904;54.350;18.664;2023-06-04T02:46:49;14.10;62.10
18321;DHT22;54904;54.350;18.664;2023-06-04T02:49:16;14.10;62.00
18321;DHT22;54904;54.350;18.664;2023-06-04T02:51:43;14.10;61.80
18321;DHT22;54904;54.350;18.664;2023-06-04T02:54:11;14.20;61.80
18321;DHT22;54904;54.350;18.664;2023-06-04T02:56:38;14.20;61.70
18321;DHT22;54904;54.350;18.664;2023-06-04T02:59:07;14.20;61.70
18321;DHT22;54904;54.350;18.664;2023-06-04T03:01:35;14.20;61.60
18321;DHT22;54904;54.350;18.664;2023-06-04T03:04:02;14.20;61.60
18321;DHT22;54904;54.350;18.664;2023-06-04T03:06:31;14.20;61.80
18321;DHT22;54904;54.350;18.664;2023-06-04T03:08:58;14.10;61.70
18321;DHT22;54904;54.350;18.664;2023-06-04T03:11:27;14.10;61.80
18321;DHT22;54904;54.350;18.664;2023-06-04T03:13:54;14.10;61.90
18321;DHT22;54904;54.350;18.664;2023-06-04T03:16:22;14.10;62.00
18321;DHT22;54904;54.350;18.664;2023-06-04T03:18:50;14.10;62.00
18321;DHT22;54904;54.350;18.664;2023-06-04T03:21:17;14.00;62.70
18321;DHT22;54904;54.350;18.664;2023-06-04T03:23:44;14.00;62.10
18321;DHT22;54904;54.350;18.664;2023-06-04T03:26:11;14.00;62.10
18321;DHT22;54904;54.350;18.664;2023-06-04T03:28:39;13.90;62.20
18321;DHT22;54904;54.350;18.664;2023-06-04T03:31:07;13.90;62.40
18321;DHT22;54904;54.350;18.664;2023-06-04T03:33:36;13.90;62.60
18321;DHT22;54904;54.350;18.664;2023-06-04T03:36:03;14.00;62.70
18321;DHT22;54904;54.350;18.664;2023-06-04T03:38:31;14.00;62.70
18321;DHT22;54904;54.350;18.664;2023-06-04T03:40:58;14.10;62.80
18321;DHT22;54904;54.350;18.664;2023-06-04T03:43:25;14.10;62.80
18321;DHT22;54904;54.350;18.664;2023-06-04T03:45:57;14.10;62.80
18321;DHT22;54904;54.350;18.664;2023-06-04T03:48:24;14.10;62.70
18321;DHT22;54904;54.350;18.664;2023-06-04T03:50:53;14.20;62.70
18321;DHT22;54904;54.350;18.664;2023-06-04T03:53:20;14.20;62.60
18321;DHT22;54904;54.350;18.664;2023-06-04T03:55:47;14.20;62.40
18321;DHT22;54904;54.350;18.664;2023-06-04T03:58:15;14.30;62.30
18321;DHT22;54904;54.350;18.664;2023-06-04T04:00:46;14.30;62.30
18321;DHT22;54904;54.350;18.664;2023-06-04T04:03:14;14.30;62.20
18321;DHT22;54904;54.350;18.664;2023-06-04T04:05:42;14.30;62.10
18321;DHT22;54904;54.350;18.664;2023-06-04T04:08:11;14.30;62.10
18321;DHT22;54904;54.350;18.664;2023-06-04T04:10:38;14.30;62.10
18321;DHT22;54904;54.350;18.664;2023-06-04T04:13:05;14.30;62.10
18321;DHT22;54904;54.350;18.664;2023-06-04T04:15:35;14.40;62.20
18321;DHT22;54904;54.350;18.664;2023-06-04T04:18:04;14.40;62.20
18321;DHT22;54904;54.350;18.664;2023-06-04T04:20:34;14.40;62.20
18321;DHT22;54904;54.350;18.664;2023-06-04T04:23:05;14.40;62.30
18321;DHT22;54904;54.350;18.664;2023-06-04T04:25:36;14.40;62.30
18321;DHT22;54904;54.350;18.664;2023-06-04T04:28:05;14.50;62.50
18321;DHT22;54904;54.350;18.664;2023-06-04T04:30:33;14.50;62.50
18321;DHT22;54904;54.350;18.664;2023-06-04T04:33:02;14.50;62.50
18321;DHT22;54904;54.350;18.664;2023-06-04T04:35:36;14.60;62.60
18321;DHT22;54904;54.350;18.664;2023-06-04T04:38:05;14.60;62.60
18321;DHT22;54904;54.350;18.664;2023-06-04T04:40:40;14.70;62.70
18321;DHT22;54904;54.350;18.664;2023-06-04T04:43:09;14.70;62.70
18321;DHT22;54904;54.350;18.664;2023-06-04T04:45:37;14.80;62.90
18321;DHT22;54904;54.350;18.664;2023-06-04T04:48:06;14.80;62.90
18321;DHT22;54904;54.350;18.664;2023-06-04T04:50:34;14.90;63.20
18321;DHT22;54904;54.350;18.664;2023-06-04T04:53:02;14.90;63.20
18321;DHT22;54904;54.350;18.664;2023-06-04T04:55:30;15.00;63.40
18321;DHT22;54904;54.350;18.664;2023-06-04T04:57:59;15.10;63.60
18321;DHT22;54904;54.350;18.664;2023-06-04T05:00:27;15.10;63.60
18321;DHT22;54904;54.350;18.664;2023-06-04T05:02:55;15.20;63.70
18321;DHT22;54904;54.350;18.664;2023-06-04T05:05:22;15.20;63.70
18321;DHT22;54904;54.350;18.664;2023-06-04T05:07:50;15.30;63.80
18321;DHT22;54904;54.350;18.664;2023-06-04T05:10:20;15.30;63.80
18321;DHT22;54904;54.350;18.664;2023-06-04T05:12:51;15.40;63.90
18321;DHT22;54904;54.350;18.664;2023-06-04T05:15:21;15.40;64.70
18321;DHT22;54904;54.350;18.664;2023-06-04T05:17:51;15.50;63.90
18321;DHT22;54904;54.350;18.664;2023-06-04T05:20:19;15.60;64.00
18321;DHT22;54904;54.350;18.664;2023-06-04T05:22:48;15.60;63.90
18321;DHT22;54904;54.350;18.664;2023-06-04T05:25:17;15.60;63.90
18321;DHT22;54904;54.350;18.664;2023-06-04T05:27:45;15.70;63.80
18321;DHT22;54904;54.350;18.664;2023-06-04T05:30:15;15.70;63.50
18321;DHT22;54904;54.350;18.664;2023-06-04T05:32:44;15.80;63.50
18321;DHT22;54904;54.350;18.664;2023-06-04T05:35:15;15.80;63.50
18321;DHT22;54904;54.350;18.664;2023-06-04T05:37:43;15.90;63.50
18321;DHT22;54904;54.350;18.664;2023-06-04T05:40:12;15.90;63.10
18321;DHT22;54904;54.350;18.664;2023-06-04T05:42:41;16.00;63.00
18321;DHT22;54904;54.350;18.664;2023-06-04T05:45:09;16.00;62.90
18321;DHT22;54904;54.350;18.664;2023-06-04T05:47:38;16.10;63.00
18321;DHT22;54904;54.350;18.664;2023-06-04T05:50:08;16.10;62.70
18321;DHT22;54904;54.350;18.664;2023-06-04T05:52:35;16.20;62.60
18321;DHT22;54904;54.350;18.664;2023-06-04T05:55:07;16.20;62.70
18321;DHT22;54904;54.350;18.664;2023-06-04T05:57:36;16.30;62.80
18321;DHT22;54904;54.350;18.664;2023-06-04T06:00:04;16.40;62.90
18321;DHT22;54904;54.350;18.664;2023-06-04T06:02:40;16.40;63.00
18321;DHT22;54904;54.350;18.664;2023-06-04T06:05:17;16.50;63.10
18321;DHT22;54904;54.350;18.664;2023-06-04T06:07:46;16.50;63.20
18321;DHT22;54904;54.350;18.664;2023-06-04T06:10:13;16.60;63.20
18321;DHT22;54904;54.350;18.664;2023-06-04T06:12:41;16.60;63.20
18321;DHT22;54904;54.350;18.664;2023-06-04T06:15:09;16.70;63.30
18321;DHT22;54904;54.350;18.664;2023-06-04T06:17:38;16.80;63.40
18321;DHT22;54904;54.350;18.664;2023-06-04T06:20:06;16.80;63.20
18321;DHT22;54904;54.350;18.664;2023-06-04T06:22:36;16.90;63.10
18321;DHT22;54904;54.350;18.664;2023-06-04T06:25:05;16.90;62.80
18321;DHT22;54904;54.350;18.664;2023-06-04T06:27:37;17.00;62.80
18321;DHT22;54904;54.350;18.664;2023-06-04T06:30:06;17.10;62.90
18321;DHT22;54904;54.350;18.664;2023-06-04T06:32:33;17.10;62.80
18321;DHT22;54904;54.350;18.664;2023-06-04T06:35:00;17.20;62.90
18321;DHT22;54904;54.350;18.664;2023-06-04T06:37:28;17.30;62.80
18321;DHT22;54904;54.350;18.664;2023-06-04T06:39:56;17.40;63.10
18321;DHT22;54904;54.350;18.664;2023-06-04T06:42:24;17.40;62.80
18321;DHT22;54904;54.350;18.664;2023-06-04T06:44:52;17.50;62.10
18321;DHT22;54904;54.350;18.664;2023-06-04T06:47:19;17.50;61.20
18321;DHT22;54904;54.350;18.664;2023-06-04T06:49:46;17.60;60.70
18321;DHT22;54904;54.350;18.664;2023-06-04T06:52:13;17.60;60.20
18321;DHT22;54904;54.350;18.664;2023-06-04T06:54:44;17.70;59.70
18321;DHT22;54904;54.350;18.664;2023-06-04T06:57:13;17.70;59.10
18321;DHT22;54904;54.350;18.664;2023-06-04T06:59:40;17.80;58.80
18321;DHT22;54904;54.350;18.664;2023-06-04T07:02:07;17.90;58.50
18321;DHT22;54904;54.350;18.664;2023-06-04T07:04:35;17.90;58.00
18321;DHT22;54904;54.350;18.664;2023-06-04T07:07:02;18.00;57.70
18321;DHT22;54904;54.350;18.664;2023-06-04T07:09:29;18.00;57.50
18321;DHT22;54904;54.350;18.664;2023-06-04T07:11:56;18.10;57.30
18321;DHT22;54904;54.350;18.664;2023-06-04T07:14:24;18.20;56.90
18321;DHT22;54904;54.350;18.664;2023-06-04T07:16:51;18.20;56.80
18321;DHT22;54904;54.350;18.664;2023-06-04T07:19:18;18.30;56.50
18321;DHT22;54904;54.350;18.664;2023-06-04T07:21:45;18.40;56.40
18321;DHT22;54904;54.350;18.664;2023-06-04T07:24:12;18.40;56.20
18321;DHT22;54904;54.350;18.664;2023-06-04T07:26:40;18.50;56.30
18321;DHT22;54904;54.350;18.664;2023-06-04T07:29:07;18.60;56.00
18321;DHT22;54904;54.350;18.664;2023-06-04T07:31:35;18.60;55.90
18321;DHT22;54904;54.350;18.664;2023-06-04T07:34:02;18.70;55.60
18321;DHT22;54904;54.350;18.664;2023-06-04T07:36:29;18.80;54.80
18321;DHT22;54904;54.350;18.664;2023-06-04T07:38:56;18.80;54.80
18321;DHT22;54904;54.350;18.664;2023-06-04T07:41:23;18.90;54.80
18321;DHT22;54904;54.350;18.664;2023-06-04T07:43:51;18.90;55.00
18321;DHT22;54904;54.350;18.664;2023-06-04T07:46:18;19.00;55.40
18321;DHT22;54904;54.350;18.664;2023-06-04T07:48:47;19.00;55.90
18321;DHT22;54904;54.350;18.664;2023-06-04T07:51:14;19.10;56.60
18321;DHT22;54904;54.350;18.664;2023-06-04T07:53:41;19.10;57.00
18321;DHT22;54904;54.350;18.664;2023-06-04T07:56:10;19.20;57.20
18321;DHT22;54904;54.350;18.664;2023-06-04T07:58:37;19.20;57.20
18321;DHT22;54904;54.350;18.664;2023-06-04T08:01:04;19.30;57.20
18321;DHT22;54904;54.350;18.664;2023-06-04T08:03:33;19.30;57.30
18321;DHT22;54904;54.350;18.664;2023-06-04T08:06:01;19.40;57.50
18321;DHT22;54904;54.350;18.664;2023-06-04T08:08:28;19.40;57.70
18321;DHT22;54904;54.350;18.664;2023-06-04T08:10:55;19.50;57.90
18321;DHT22;54904;54.350;18.664;2023-06-04T08:13:22;19.50;58.00
18321;DHT22;54904;54.350;18.664;2023-06-04T08:15:49;19.50;57.80
18321;DHT22;54904;54.350;18.664;2023-06-04T08:18:16;19.50;57.70
18321;DHT22;54904;54.350;18.664;2023-06-04T08:20:43;19.60;57.70
18321;DHT22;54904;54.350;18.664;2023-06-04T08:23:12;19.60;57.50
18321;DHT22;54904;54.350;18.664;2023-06-04T08:25:39;19.70;57.50
18321;DHT22;54904;54.350;18.664;2023-06-04T08:28:06;19.70;57.40
18321;DHT22;54904;54.350;18.664;2023-06-04T08:30:35;19.80;57.30
18321;DHT22;54904;54.350;18.664;2023-06-04T08:33:02;19.80;57.40
18321;DHT22;54904;54.350;18.664;2023-06-04T08:35:29;19.80;57.50
18321;DHT22;54904;54.350;18.664;2023-06-04T08:37:56;19.90;57.40
18321;DHT22;54904;54.350;18.664;2023-06-04T08:40:26;19.90;57.20
18321;DHT22;54904;54.350;18.664;2023-06-04T08:42:55;19.90;57.20
18321;DHT22;54904;54.350;18.664;2023-06-04T08:45:24;20.00;57.20
18321;DHT22;54904;54.350;18.664;2023-06-04T08:47:52;20.00;57.30
18321;DHT22;54904;54.350;18.664;2023-06-04T08:50:21;20.10;57.40
18321;DHT22;54904;54.350;18.664;2023-06-04T08:52:49;20.20;57.40
18321;DHT22;54904;54.350;18.664;2023-06-04T08:55:19;20.20;57.20
18321;DHT22;54904;54.350;18.664;2023-06-04T08:57:48;20.30;57.20
18321;DHT22;54904;54.350;18.664;2023-06-04T09:00:16;20.40;57.00
18321;DHT22;54904;54.350;18.664;2023-06-04T09:02:45;20.40;56.80
18321;DHT22;54904;54.350;18.664;2023-06-04T09:05:18;20.50;56.40
18321;DHT22;54904;54.350;18.664;2023-06-04T09:07:46;20.60;56.30
18321;DHT22;54904;54.350;18.664;2023-06-04T09:10:18;20.60;56.10
18321;DHT22;54904;54.350;18.664;2023-06-04T09:12:47;20.60;55.90
18321;DHT22;54904;54.350;18.664;2023-06-04T09:15:16;20.70;55.50
18321;DHT22;54904;54.350;18.664;2023-06-04T09:17:43;20.70;55.20
18321;DHT22;54904;54.350;18.664;2023-06-04T09:20:19;20.70;54.90
18321;DHT22;54904;54.350;18.664;2023-06-04T09:22:46;20.80;54.40
18321;DHT22;54904;54.350;18.664;2023-06-04T09:25:20;20.80;54.50
18321;DHT22;54904;54.350;18.664;2023-06-04T09:27:48;20.90;54.00
18321;DHT22;54904;54.350;18.664;2023-06-04T09:30:16;20.90;53.60
18321;DHT22;54904;54.350;18.664;2023-06-04T09:32:43;20.90;53.70
18321;DHT22;54904;54.350;18.664;2023-06-04T09:35:11;21.00;53.60
18321;DHT22;54904;54.350;18.664;2023-06-04T09:37:39;21.00;53.60
18321;DHT22;54904;54.350;18.664;2023-06-04T09:40:08;21.10;53.40
18321;DHT22;54904;54.350;18.664;2023-06-04T09:42:54;21.10;53.40
18321;DHT22;54904;54.350;18.664;2023-06-04T09:45:28;21.20;53.40
18321;DHT22;54904;54.350;18.664;2023-06-04T09:47:55;21.30;52.80
18321;DHT22;54904;54.350;18.664;2023-06-04T09:50:25;21.30;53.10
18321;DHT22;54904;54.350;18.664;2023-06-04T09:52:52;21.30;52.30
18321;DHT22;54904;54.350;18.664;2023-06-04T09:55:20;21.30;52.30
18321;DHT22;54904;54.350;18.664;2023-06-04T09:57:48;21.30;52.10
18321;DHT22;54904;54.350;18.664;2023-06-04T10:00:19;21.40;51.70
18321;DHT22;54904;54.350;18.664;2023-06-04T10:02:49;21.40;51.40
18321;DHT22;54904;54.350;18.664;2023-06-04T10:05:16;21.40;51.20
18321;DHT22;54904;54.350;18.664;2023-06-04T10:07:51;21.40;51.20
18321;DHT22;54904;54.350;18.664;2023-06-04T10:10:21;21.50;51.40
18321;DHT22;54904;54.350;18.664;2023-06-04T10:12:52;21.60;51.20
18321;DHT22;54904;54.350;18.664;2023-06-04T10:15:23;21.60;50.90
18321;DHT22;54904;54.350;18.664;2023-06-04T10:17:50;21.70;51.10
18321;DHT22;54904;54.350;18.664;2023-06-04T10:20:18;21.70;51.40
18321;DHT22;54904;54.350;18.664;2023-06-04T10:22:48;21.80;50.50
18321;DHT22;54904;54.350;18.664;2023-06-04T10:25:16;21.80;50.30
18321;DHT22;54904;54.350;18.664;2023-06-04T10:27:46;21.80;50.40
18321;DHT22;54904;54.350;18.664;2023-06-04T10:30:13;21.90;50.70
18321;DHT22;54904;54.350;18.664;2023-06-04T10:32:42;21.90;50.70
18321;DHT22;54904;54.350;18.664;2023-06-04T10:35:09;22.00;50.70
18321;DHT22;54904;54.350;18.664;2023-06-04T10:37:37;22.00;50.60
18321;DHT22;54904;54.350;18.664;2023-06-04T10:40:05;22.00;50.60
18321;DHT22;54904;54.350;18.664;2023-06-04T10:42:38;22.10;50.50
18321;DHT22;54904;54.350;18.664;2023-06-04T10:45:07;22.00;50.20
18321;DHT22;54904;54.350;18.664;2023-06-04T10:47:35;22.00;50.10
18321;DHT22;54904;54.350;18.664;2023-06-04T10:50:11;22.00;50.20
18321;DHT22;54904;54.350;18.664;2023-06-04T10:52:50;22.10;50.60
18321;DHT22;54904;54.350;18.664;2023-06-04T10:55:17;22.10;50.90
18321;DHT22;54904;54.350;18.664;2023-06-04T10:57:51;22.10;51.40
18321;DHT22;54904;54.350;18.664;2023-06-04T11:00:19;22.20;51.50
18321;DHT22;54904;54.350;18.664;2023-06-04T11:02:51;22.20;51.60
18321;DHT22;54904;54.350;18.664;2023-06-04T11:05:20;22.30;51.60
18321;DHT22;54904;54.350;18.664;2023-06-04T11:07:49;22.30;51.40
18321;DHT22;54904;54.350;18.664;2023-06-04T11:10:17;22.30;51.40
18321;DHT22;54904;54.350;18.664;2023-06-04T11:12:45;22.30;51.40
18321;DHT22;54904;54.350;18.664;2023-06-04T11:15:12;22.40;51.50
18321;DHT22;54904;54.350;18.664;2023-06-04T11:17:51;22.40;50.90
18321;DHT22;54904;54.350;18.664;2023-06-04T11:20:20;22.40;50.60
18321;DHT22;54904;54.350;18.664;2023-06-04T11:22:54;22.30;51.00
18321;DHT22;54904;54.350;18.664;2023-06-04T11:25:22;22.30;51.70
18321;DHT22;54904;54.350;18.664;2023-06-04T11:27:52;22.30;52.40
18321;DHT22;54904;54.350;18.664;2023-06-04T11:30:21;22.30;53.30
18321;DHT22;54904;54.350;18.664;2023-06-04T11:32:49;22.20;52.90
18321;DHT22;54904;54.350;18.664;2023-06-04T11:35:16;22.20;52.50
18321;DHT22;54904;54.350;18.664;2023-06-04T11:37:54;22.20;52.30
18321;DHT22;54904;54.350;18.664;2023-06-04T11:40:21;22.30;52.20
18321;DHT22;54904;54.350;18.664;2023-06-04T11:42:49;22.30;52.10
18321;DHT22;54904;54.350;18.664;2023-06-04T11:45:18;22.30;52.20
18321;DHT22;54904;54.350;18.664;2023-06-04T11:47:46;22.30;52.40
18321;DHT22;54904;54.350;18.664;2023-06-04T11:50:14;22.30;52.10
18321;DHT22;54904;54.350;18.664;2023-06-04T11:52:42;22.30;51.70
18321;DHT22;54904;54.350;18.664;2023-06-04T11:55:11;22.20;51.00
18321;DHT22;54904;54.350;18.664;2023-06-04T11:57:40;22.20;51.00
18321;DHT22;54904;54.350;18.664;2023-06-04T12:00:08;22.20;51.10
18321;DHT22;54904;54.350;18.664;2023-06-04T12:02:36;22.20;51.10
18321;DHT22;54904;54.350;18.664;2023-06-04T12:05:13;22.20;50.90
18321;DHT22;54904;54.350;18.664;2023-06-04T12:07:41;22.20;50.90
18321;DHT22;54904;54.350;18.664;2023-06-04T12:10:10;22.20;50.90
18321;DHT22;54904;54.350;18.664;2023-06-04T12:12:38;22.20;51.60
18321;DHT22;54904;54.350;18.664;2023-06-04T12:15:07;22.30;50.70
18321;DHT22;54904;54.350;18.664;2023-06-04T12:17:35;22.30;50.40
18321;DHT22;54904;54.350;18.664;2023-06-04T12:20:03;22.40;50.30
18321;DHT22;54904;54.350;18.664;2023-06-04T12:22:31;22.30;49.60
18321;DHT22;54904;54.350;18.664;2023-06-04T12:24:58;22.30;49.30
18321;DHT22;54904;54.350;18.664;2023-06-04T12:27:30;22.30;49.30
18321;DHT22;54904;54.350;18.664;2023-06-04T12:29:58;22.40;49.80
18321;DHT22;54904;54.350;18.664;2023-06-04T12:32:26;22.40;49.50
18321;DHT22;54904;54.350;18.664;2023-06-04T12:34:54;22.40;49.60
18321;DHT22;54904;54.350;18.664;2023-06-04T12:37:22;22.40;49.50
18321;DHT22;54904;54.350;18.664;2023-06-04T12:39:51;22.40;49.40
18321;DHT22;54904;54.350;18.664;2023-06-04T12:42:19;22.40;49.40
18321;DHT22;54904;54.350;18.664;2023-06-04T12:44:47;22.30;49.50
18321;DHT22;54904;54.350;18.664;2023-06-04T12:47:14;22.30;49.60
18321;DHT22;54904;54.350;18.664;2023-06-04T12:49:42;22.30;49.20
18321;DHT22;54904;54.350;18.664;2023-06-04T12:52:09;22.20;48.90
18321;DHT22;54904;54.350;18.664;2023-06-04T12:54:36;22.20;49.10
18321;DHT22;54904;54.350;18.664;2023-06-04T12:57:04;22.20;48.80
18321;DHT22;54904;54.350;18.664;2023-06-04T12:59:31;22.20;49.00
18321;DHT22;54904;54.350;18.664;2023-06-04T13:01:59;22.20;48.90
18321;DHT22;54904;54.350;18.664;2023-06-04T13:04:26;22.10;49.00
18321;DHT22;54904;54.350;18.664;2023-06-04T13:06:54;22.10;48.80
18321;DHT22;54904;54.350;18.664;2023-06-04T13:09:25;22.10;48.50
18321;DHT22;54904;54.350;18.664;2023-06-04T13:11:53;22.10;48.30
18321;DHT22;54904;54.350;18.664;2023-06-04T13:14:20;22.10;48.30
18321;DHT22;54904;54.350;18.664;2023-06-04T13:16:48;22.10;48.30
18321;DHT22;54904;54.350;18.664;2023-06-04T13:19:18;22.00;48.50
18321;DHT22;54904;54.350;18.664;2023-06-04T13:21:48;22.00;48.90
18321;DHT22;54904;54.350;18.664;2023-06-04T13:24:18;22.00;49.00
18321;DHT22;54904;54.350;18.664;2023-06-04T13:26:45;22.00;49.00
18321;DHT22;54904;54.350;18.664;2023-06-04T13:29:12;22.00;48.70
18321;DHT22;54904;54.350;18.664;2023-06-04T13:31:41;22.10;48.60
18321;DHT22;54904;54.350;18.664;2023-06-04T13:34:08;22.10;48.80
18321;DHT22;54904;54.350;18.664;2023-06-04T13:36:38;22.20;48.80
18321;DHT22;54904;54.350;18.664;2023-06-04T13:39:05;22.20;48.60
18321;DHT22;54904;54.350;18.664;2023-06-04T13:41:32;22.20;47.90
18321;DHT22;54904;54.350;18.664;2023-06-04T13:43:59;22.10;47.70
18321;DHT22;54904;54.350;18.664;2023-06-04T13:46:26;22.10;47.80
18321;DHT22;54904;54.350;18.664;2023-06-04T13:48:53;22.00;47.30
18321;DHT22;54904;54.350;18.664;2023-06-04T13:51:20;22.00;47.70
18321;DHT22;54904;54.350;18.664;2023-06-04T13:53:49;22.00;47.70
18321;DHT22;54904;54.350;18.664;2023-06-04T13:56:19;22.00;47.70
18321;DHT22;54904;54.350;18.664;2023-06-04T13:58:46;21.90;47.70
18321;DHT22;54904;54.350;18.664;2023-06-04T14:01:13;21.90;48.50
18321;DHT22;54904;54.350;18.664;2023-06-04T14:03:43;22.00;48.40
18321;DHT22;54904;54.350;18.664;2023-06-04T14:06:10;22.10;48.70
18321;DHT22;54904;54.350;18.664;2023-06-04T14:08:37;22.10;48.30
18321;DHT22;54904;54.350;18.664;2023-06-04T14:11:06;22.10;48.30
18321;DHT22;54904;54.350;18.664;2023-06-04T14:13:33;22.10;48.30
18321;DHT22;54904;54.350;18.664;2023-06-04T14:16:00;22.10;48.20
18321;DHT22;54904;54.350;18.664;2023-06-04T14:18:27;22.10;48.00
18321;DHT22;54904;54.350;18.664;2023-06-04T14:20:54;22.10;48.00
18321;DHT22;54904;54.350;18.664;2023-06-04T14:23:21;22.10;47.80
18321;DHT22;54904;54.350;18.664;2023-06-04T14:25:48;22.10;47.60
18321;DHT22;54904;54.350;18.664;2023-06-04T14:28:17;22.10;47.70
18321;DHT22;54904;54.350;18.664;2023-06-04T14:30:46;22.10;47.50
18321;DHT22;54904;54.350;18.664;2023-06-04T14:33:13;22.10;47.10
18321;DHT22;54904;54.350;18.664;2023-06-04T14:35:41;22.00;47.20
18321;DHT22;54904;54.350;18.664;2023-06-04T14:38:12;22.00;47.40
18321;DHT22;54904;54.350;18.664;2023-06-04T14:40:40;21.90;47.40
18321;DHT22;54904;54.350;18.664;2023-06-04T14:43:10;21.90;47.40
18321;DHT22;54904;54.350;18.664;2023-06-04T14:45:38;21.90;47.20
18321;DHT22;54904;54.350;18.664;2023-06-04T14:48:06;21.90;47.20
18321;DHT22;54904;54.350;18.664;2023-06-04T14:50:33;21.80;47.50
18321;DHT22;54904;54.350;18.664;2023-06-04T14:53:00;21.80;47.70
18321;DHT22;54904;54.350;18.664;2023-06-04T14:55:27;21.80;47.90
18321;DHT22;54904;54.350;18.664;2023-06-04T14:57:54;21.80;48.00
18321;DHT22;54904;54.350;18.664;2023-06-04T15:00:21;21.80;48.10
18321;DHT22;54904;54.350;18.664;2023-06-04T15:02:50;21.80;48.00
18321;DHT22;54904;54.350;18.664;2023-06-04T15:05:17;21.70;47.70
18321;DHT22;54904;54.350;18.664;2023-06-04T15:07:44;21.70;47.30
18321;DHT22;54904;54.350;18.664;2023-06-04T15:10:11;21.60;47.40
18321;DHT22;54904;54.350;18.664;2023-06-04T15:12:38;21.60;47.30
18321;DHT22;54904;54.350;18.664;2023-06-04T15:15:07;21.60;48.20
18321;DHT22;54904;54.350;18.664;2023-06-04T15:17:34;21.60;47.80
18321;DHT22;54904;54.350;18.664;2023-06-04T15:20:03;21.60;47.90
18321;DHT22;54904;54.350;18.664;2023-06-04T15:22:31;21.60;48.00